createdAt,value
2023-01-31T00:02:47.309Z,97550.47
2023-01-31T00:05:51.235Z,97559.72
2023-01-31T00:08:54.776Z,97560.97
2023-01-31T00:11:57.450Z,97570.91
2023-01-31T00:15:00.500Z,97568.38
2023-01-31T00:18:03.207Z,97577.44
2023-01-31T00:21:13.383Z,97574.09
2023-01-31T00:24:16.222Z,97571.72
2023-01-31T00:27:19.568Z,97570.34
2023-01-31T00:30:23.335Z,97585.88
2023-01-31T00:33:25.957Z,97589.84
2023-01-31T00:36:31.931Z,97602.47
2023-01-31T00:39:34.694Z,97605.47
2023-01-31T00:42:38.817Z,97608.28
2023-01-31T00:45:41.647Z,97600.72
2023-01-31T00:48:44.656Z,97607.22
2023-01-31T00:51:47.592Z,97618.09
2023-01-31T00:54:50.088Z,97625.31
2023-01-31T00:57:54.315Z,97621.91
2023-01-31T01:00:57.159Z,97617.25
2023-01-31T01:03:59.980Z,97627.63
2023-01-31T01:07:02.521Z,97623.47
2023-01-31T01:10:05.968Z,97634.00
2023-01-31T01:13:08.568Z,97630.72
2023-01-31T01:16:23.169Z,97630.22
2023-01-31T01:19:26.890Z,97630.50
2023-01-31T01:22:31.142Z,97642.34
2023-01-31T01:25:43.007Z,97641.28
2023-01-31T01:28:46.681Z,97649.56
2023-01-31T01:31:49.368Z,97647.19
2023-01-31T01:34:53.030Z,97644.16
2023-01-31T01:37:55.625Z,97651.59
2023-01-31T01:40:58.728Z,97647.47
2023-01-31T01:44:03.418Z,97652.44
2023-01-31T01:47:15.369Z,97661.78
2023-01-31T01:50:21.233Z,97657.31
2023-01-31T01:53:27.656Z,97668.50
2023-01-31T01:56:36.782Z,97672.97
2023-01-31T01:59:44.947Z,97693.16
2023-01-31T02:02:49.387Z,97685.91
2023-01-31T02:05:55.474Z,97687.06
2023-01-31T02:08:58.496Z,97688.41
2023-01-31T02:12:01.180Z,97697.00
2023-01-31T02:15:04.211Z,97696.03
2023-01-31T02:18:07.871Z,97685.78
2023-01-31T02:21:22.677Z,97686.41
2023-01-31T02:24:57.495Z,97694.59
2023-01-31T02:28:03.573Z,97681.44
2023-01-31T02:31:44.209Z,97681.25
2023-01-31T02:35:25.740Z,97683.72
2023-01-31T02:38:42.827Z,97691.00
2023-01-31T02:42:07.501Z,97700.63
2023-01-31T02:45:34.556Z,97688.75
2023-01-31T02:48:49.099Z,97694.09
2023-01-31T02:52:15.402Z,97686.84
2023-01-31T02:55:47.277Z,97695.66
2023-01-31T02:59:07.982Z,97699.72
2023-01-31T03:02:13.870Z,97690.06
2023-01-31T03:05:20.100Z,97693.47
2023-01-31T03:08:23.287Z,97694.75
2023-01-31T03:11:32.757Z,97700.31
2023-01-31T03:14:43.277Z,97708.38
2023-01-31T03:17:48.063Z,97724.34
2023-01-31T03:20:57.159Z,97729.75
2023-01-31T03:24:02.571Z,97740.91
2023-01-31T03:27:06.140Z,97746.06
2023-01-31T03:30:18.804Z,97747.94
2023-01-31T03:33:27.626Z,97747.28
2023-01-31T03:36:45.943Z,97749.53
2023-01-31T03:40:25.474Z,97756.38
2023-01-31T03:43:41.792Z,97746.56
2023-01-31T03:46:46.957Z,97750.13
2023-01-31T03:49:52.067Z,97768.47
2023-01-31T03:53:01.410Z,97753.91
2023-01-31T03:56:21.132Z,97758.41
2023-01-31T03:59:28.732Z,97761.75
2023-01-31T04:02:35.878Z,97766.63
2023-01-31T04:05:38.595Z,97764.03
2023-01-31T04:08:42.125Z,97765.81
2023-01-31T04:11:48.910Z,97770.28
2023-01-31T04:14:51.481Z,97773.47
2023-01-31T04:17:54.267Z,97781.13
2023-01-31T04:20:56.832Z,97773.75
2023-01-31T04:23:59.932Z,97775.84
2023-01-31T04:27:02.483Z,97796.06
2023-01-31T04:30:06.711Z,97788.75
2023-01-31T04:33:10.611Z,97794.88
2023-01-31T04:36:13.197Z,97780.06
2023-01-31T04:39:16.538Z,97799.66
2023-01-31T04:42:19.155Z,97794.88
2023-01-31T04:45:22.255Z,97792.09
2023-01-31T04:48:24.925Z,97801.69
2023-01-31T04:51:27.775Z,97798.25
2023-01-31T04:54:30.437Z,97802.31
2023-01-31T04:57:32.998Z,97801.66
2023-01-31T05:00:36.767Z,97809.69
2023-01-31T05:03:39.548Z,97814.06
2023-01-31T05:06:42.039Z,97815.00
2023-01-31T05:09:45.928Z,97812.53
2023-01-31T05:12:48.652Z,97824.59
2023-01-31T05:15:52.590Z,97827.72
2023-01-31T05:18:55.229Z,97838.25
2023-01-31T05:22:01.132Z,97833.91
2023-01-31T05:25:05.151Z,97837.25
2023-01-31T05:28:08.291Z,97838.25
2023-01-31T05:31:13.619Z,97839.28
2023-01-31T05:34:18.439Z,97847.41
2023-01-31T05:37:21.411Z,97839.38
2023-01-31T05:40:26.135Z,97847.88
2023-01-31T05:43:29.249Z,97852.97
2023-01-31T05:46:33.585Z,97863.03
2023-01-31T05:49:36.837Z,97859.91
2023-01-31T05:52:39.935Z,97856.31
2023-01-31T05:55:43.603Z,97857.31
2023-01-31T05:58:51.423Z,97880.59
2023-01-31T06:01:56.549Z,97867.94
2023-01-31T06:04:59.389Z,97873.00
2023-01-31T06:08:04.218Z,97883.09
2023-01-31T06:11:07.027Z,97883.09
2023-01-31T06:14:11.749Z,97893.50
2023-01-31T06:17:14.528Z,97910.34
2023-01-31T06:20:19.405Z,97915.44
2023-01-31T06:23:26.516Z,97923.38
2023-01-31T06:26:29.936Z,97946.34
2023-01-31T06:29:32.949Z,97931.00
2023-01-31T06:32:36.176Z,97942.47
2023-01-31T06:35:39.659Z,97954.56
2023-01-31T06:38:42.921Z,97950.03
2023-01-31T06:41:45.647Z,97951.16
2023-01-31T06:44:48.427Z,97965.09
2023-01-31T06:47:51.152Z,97969.63
2023-01-31T06:50:56.804Z,97980.13
2023-01-31T06:53:59.608Z,97986.81
2023-01-31T06:57:02.472Z,97978.53
2023-01-31T07:00:06.553Z,97997.97
2023-01-31T07:03:09.846Z,97980.13
2023-01-31T07:06:14.235Z,98010.06
2023-01-31T07:09:17.498Z,98006.19
2023-01-31T07:12:21.075Z,98014.31
2023-01-31T07:15:24.609Z,97998.63
2023-01-31T07:18:27.472Z,98012.66
2023-01-31T07:21:31.188Z,98012.66
2023-01-31T07:24:35.997Z,98007.66
2023-01-31T07:27:39.087Z,98017.47
2023-01-31T07:30:44.143Z,98031.38
2023-01-31T07:33:47.299Z,98024.75
2023-01-31T07:36:50.959Z,98018.91
2023-01-31T07:39:53.514Z,98029.28
2023-01-31T07:42:59.909Z,98031.78
2023-01-31T07:46:03.034Z,98031.03
2023-01-31T07:49:07.303Z,98034.16
2023-01-31T07:52:10.241Z,98034.44
2023-01-31T07:55:14.424Z,98023.53
2023-01-31T07:58:17.440Z,98032.19
2023-01-31T08:01:43.487Z,98034.56
2023-01-31T08:04:47.776Z,98028.84
2023-01-31T08:08:11.908Z,98033.88
2023-01-31T08:11:14.740Z,98038.03
2023-01-31T08:14:17.944Z,98039.94
2023-01-31T08:17:20.928Z,98054.91
2023-01-31T08:20:23.941Z,98028.31
2023-01-31T08:23:28.456Z,98037.59
2023-01-31T08:26:31.714Z,98049.78
2023-01-31T08:29:34.685Z,98065.03
2023-01-31T08:32:37.369Z,98071.41
2023-01-31T08:35:41.579Z,98065.91
2023-01-31T08:38:45.071Z,98077.53
2023-01-31T08:41:48.505Z,98073.03
2023-01-31T08:44:51.318Z,98079.84
2023-01-31T08:47:56.909Z,98089.72
2023-01-31T08:51:05.014Z,98093.72
2023-01-31T08:54:10.058Z,98098.84
2023-01-31T08:57:14.201Z,98099.38
2023-01-31T09:00:17.818Z,98112.91
2023-01-31T09:03:21.590Z,98111.53
2023-01-31T09:06:27.249Z,98107.56
2023-01-31T09:09:30.660Z,98113.44
2023-01-31T09:12:34.534Z,98116.13
2023-01-31T09:15:39.012Z,98118.03
2023-01-31T09:18:41.918Z,98125.03
2023-01-31T09:21:44.653Z,98136.19
2023-01-31T09:24:47.529Z,98136.97
2023-01-31T09:27:52.857Z,98141.25
2023-01-31T09:30:56.077Z,98145.72
2023-01-31T09:33:59.666Z,98130.06
2023-01-31T09:37:02.590Z,98133.78
2023-01-31T09:40:07.531Z,98137.25
2023-01-31T09:43:12.302Z,98146.28
2023-01-31T09:46:18.582Z,98130.25
2023-01-31T09:49:28.459Z,98132.16
2023-01-31T09:52:33.637Z,98145.97
2023-01-31T09:55:38.458Z,98145.41
2023-01-31T09:58:54.061Z,98143.03
2023-01-31T10:02:06.760Z,98141.94
2023-01-31T10:05:36.213Z,98158.44
2023-01-31T10:08:59.726Z,98142.66
2023-01-31T10:12:29.256Z,98145.97
2023-01-31T10:15:46.265Z,98141.72
2023-01-31T10:19:10.956Z,98147.44
2023-01-31T10:22:35.219Z,98143.88
2023-01-31T10:25:52.224Z,98153.78
2023-01-31T10:28:57.548Z,98145.06
2023-01-31T10:32:32.003Z,98148.28
2023-01-31T10:35:41.354Z,98148.94
2023-01-31T10:39:08.908Z,98156.75
2023-01-31T10:42:24.822Z,98163.53
2023-01-31T10:45:34.433Z,98172.97
2023-01-31T10:48:40.043Z,98169.34
2023-01-31T10:51:59.978Z,98158.53
2023-01-31T10:55:27.629Z,98167.84
2023-01-31T10:58:31.422Z,98152.56
2023-01-31T11:01:37.899Z,98157.13
2023-01-31T11:04:45.231Z,98155.72
2023-01-31T11:07:48.308Z,98160.97
2023-01-31T11:10:55.333Z,98153.41
2023-01-31T11:14:07.742Z,98157.81
2023-01-31T11:17:19.316Z,98156.59
2023-01-31T11:20:30.805Z,98140.22
2023-01-31T11:23:35.246Z,98137.81
2023-01-31T11:26:40.627Z,98122.78
2023-01-31T11:29:51.280Z,98131.09
2023-01-31T11:32:55.824Z,98139.38
2023-01-31T11:35:58.724Z,98125.25
2023-01-31T11:39:25.365Z,98127.75
2023-01-31T11:42:28.474Z,98133.75
2023-01-31T11:45:37.421Z,98131.66
2023-01-31T11:48:42.919Z,98145.91
2023-01-31T11:51:46.071Z,98149.13
2023-01-31T11:55:06.369Z,98146.47
2023-01-31T11:58:34.360Z,98157.88
2023-01-31T12:01:46.857Z,98151.16
2023-01-31T12:04:51.613Z,98146.53
2023-01-31T12:07:56.825Z,98149.06
2023-01-31T12:11:00.817Z,98135.00
2023-01-31T12:14:07.100Z,98145.06
2023-01-31T12:17:16.160Z,98136.97
2023-01-31T12:20:29.293Z,98128.56
2023-01-31T12:23:57.320Z,98128.78
2023-01-31T12:27:07.628Z,98114.50
2023-01-31T12:30:35.022Z,98118.78
2023-01-31T12:33:53.426Z,98109.47
2023-01-31T12:37:22.461Z,98110.34
2023-01-31T12:40:44.634Z,98105.81
2023-01-31T12:44:26.459Z,98108.13
2023-01-31T12:47:57.617Z,98105.19
2023-01-31T12:51:25.531Z,98099.50
2023-01-31T12:54:47.204Z,98101.16
2023-01-31T12:58:04.769Z,98101.53
2023-01-31T13:01:15.480Z,98099.34
2023-01-31T13:04:27.706Z,98103.44
2023-01-31T13:07:46.359Z,98099.53
2023-01-31T13:11:21.717Z,98093.97
2023-01-31T13:14:27.067Z,98103.69
2023-01-31T13:17:30.941Z,98099.25
2023-01-31T13:20:41.808Z,98104.81
2023-01-31T13:23:57.097Z,98103.72
2023-01-31T13:27:08.268Z,98112.41
2023-01-31T13:30:27.404Z,98109.81
2023-01-31T13:33:45.320Z,98100.53
2023-01-31T13:36:52.335Z,98104.56
2023-01-31T13:40:00.096Z,98095.69
2023-01-31T13:43:13.892Z,98102.41
2023-01-31T13:46:25.011Z,98105.19
2023-01-31T13:49:31.142Z,98097.28
2023-01-31T13:52:53.625Z,98090.63
2023-01-31T13:55:57.652Z,98094.97
2023-01-31T13:59:02.778Z,98083.16
2023-01-31T14:02:19.896Z,98078.50
2023-01-31T14:05:41.513Z,98092.31
2023-01-31T14:08:50.603Z,98078.44
2023-01-31T14:11:59.438Z,98081.94
2023-01-31T14:15:06.296Z,98077.16
2023-01-31T14:18:10.408Z,98079.00
2023-01-31T14:21:58.679Z,98080.72
2023-01-31T14:25:10.700Z,98072.31
2023-01-31T14:28:16.005Z,98073.34
2023-01-31T14:31:20.100Z,98079.53
2023-01-31T14:34:31.229Z,98076.41
2023-01-31T14:37:43.268Z,98076.19
2023-01-31T14:41:04.889Z,98071.13
2023-01-31T14:44:32.334Z,98068.59
2023-01-31T14:47:42.755Z,98061.78
2023-01-31T14:51:11.868Z,98054.72
2023-01-31T14:54:30.679Z,98058.31
2023-01-31T14:57:41.422Z,98049.03
2023-01-31T15:00:53.376Z,98041.88
2023-01-31T15:04:02.175Z,98037.63
2023-01-31T15:07:17.433Z,98052.81
2023-01-31T15:10:55.628Z,98045.00
2023-01-31T15:13:58.919Z,98040.88
2023-01-31T15:17:14.887Z,98040.00
2023-01-31T15:20:38.678Z,98040.19
2023-01-31T15:23:45.915Z,98041.00
2023-01-31T15:26:49.062Z,98028.06
2023-01-31T15:29:56.048Z,98042.59
2023-01-31T15:32:59.243Z,98043.75
2023-01-31T15:36:07.224Z,98045.50
2023-01-31T15:39:23.182Z,98050.44
2023-01-31T15:42:33.832Z,98040.72
2023-01-31T15:45:38.952Z,98041.56
2023-01-31T15:48:44.309Z,98047.47
2023-01-31T15:51:47.276Z,98037.50
2023-01-31T15:55:00.260Z,98034.72
2023-01-31T15:58:08.618Z,98020.63
2023-01-31T16:01:16.875Z,98026.84
2023-01-31T16:04:19.955Z,98020.84
2023-01-31T16:07:28.659Z,98026.84
2023-01-31T16:10:32.428Z,98010.25
2023-01-31T16:13:40.622Z,98024.34
2023-01-31T16:16:53.013Z,98026.03
2023-01-31T16:19:57.853Z,98026.84
2023-01-31T16:23:00.971Z,98026.22
2023-01-31T16:27:00.632Z,98026.13
2023-01-31T16:30:09.206Z,98033.06
2023-01-31T16:33:22.134Z,98026.41
2023-01-31T16:36:31.381Z,98035.91
2023-01-31T16:39:51.111Z,98036.38
2023-01-31T16:43:21.012Z,98046.75
2023-01-31T16:46:39.075Z,98037.59
2023-01-31T16:49:41.846Z,98045.69
2023-01-31T16:52:48.439Z,98045.06
2023-01-31T16:56:22.527Z,98053.13
2023-01-31T16:59:34.819Z,98038.63
2023-01-31T17:02:46.795Z,98045.06
2023-01-31T17:05:52.718Z,98036.47
2023-01-31T17:08:55.971Z,98037.84
2023-01-31T17:12:01.981Z,98035.44
2023-01-31T17:15:35.145Z,98033.56
2023-01-31T17:18:41.615Z,98038.97
2023-01-31T17:21:46.606Z,98035.09
2023-01-31T17:24:51.151Z,98034.50
2023-01-31T17:27:56.757Z,98034.91
2023-01-31T17:31:03.370Z,98030.09
2023-01-31T17:34:13.895Z,98020.28
2023-01-31T17:37:20.851Z,98014.81
2023-01-31T17:40:27.479Z,98024.34
2023-01-31T17:43:32.150Z,98030.47
2023-01-31T17:46:36.261Z,98036.78
2023-01-31T17:49:39.690Z,98040.28
2023-01-31T17:52:42.587Z,98036.66
2023-01-31T17:55:47.075Z,98042.84
2023-01-31T17:58:51.034Z,98025.88
2023-01-31T18:01:55.556Z,98030.28
2023-01-31T18:04:58.373Z,98024.03
2023-01-31T18:08:02.708Z,98018.53
2023-01-31T18:11:11.762Z,98013.53
2023-01-31T18:14:15.888Z,97992.25
2023-01-31T18:17:20.754Z,97994.78
2023-01-31T18:20:24.092Z,97994.47
2023-01-31T18:23:30.111Z,98002.66
2023-01-31T18:26:33.388Z,97991.38
2023-01-31T18:29:39.866Z,97991.00
2023-01-31T18:32:44.319Z,97982.88
2023-01-31T18:35:59.527Z,97988.44
2023-01-31T18:39:04.453Z,97991.66
2023-01-31T18:42:11.076Z,97990.47
2023-01-31T18:45:14.176Z,97971.34
2023-01-31T18:48:18.539Z,97972.47
2023-01-31T18:51:21.840Z,97971.03
2023-01-31T18:54:27.305Z,97972.72
2023-01-31T18:57:36.347Z,97963.84
2023-01-31T19:00:39.167Z,97967.38
2023-01-31T19:03:44.177Z,97973.44
2023-01-31T19:06:47.340Z,97968.53
2023-01-31T19:09:53.783Z,97963.66
2023-01-31T19:12:57.265Z,97965.22
2023-01-31T19:16:16.783Z,97964.41
2023-01-31T19:19:21.808Z,97963.66
2023-01-31T19:22:29.443Z,97964.13
2023-01-31T19:25:33.153Z,97952.22
2023-01-31T19:28:37.482Z,97956.72
2023-01-31T19:31:40.723Z,97964.13
2023-01-31T19:34:44.908Z,97956.91
2023-01-31T19:37:52.625Z,97954.22
2023-01-31T19:41:04.832Z,97960.13
2023-01-31T19:44:07.687Z,97952.75
2023-01-31T19:47:12.108Z,97938.34
2023-01-31T19:50:15.555Z,97939.03
2023-01-31T19:53:21.384Z,97929.91
2023-01-31T19:56:26.082Z,97944.41
2023-01-31T19:59:29.403Z,97933.53
2023-01-31T20:02:34.358Z,97938.59
2023-01-31T20:05:37.718Z,97925.56
2023-01-31T20:08:42.134Z,97924.34
2023-01-31T20:11:45.178Z,97931.72
2023-01-31T20:14:49.857Z,97924.88
2023-01-31T20:17:53.833Z,97918.63
2023-01-31T20:21:00.157Z,97925.78
2023-01-31T20:24:03.309Z,97914.41
2023-01-31T20:27:07.357Z,97917.75
2023-01-31T20:30:13.391Z,97914.03
2023-01-31T20:33:17.217Z,97904.69
2023-01-31T20:36:23.935Z,97909.88
2023-01-31T20:39:26.953Z,97915.91
2023-01-31T20:42:32.475Z,97929.75
2023-01-31T20:45:35.587Z,97941.56
2023-01-31T20:48:40.938Z,97919.75
2023-01-31T20:51:45.679Z,97936.00
2023-01-31T20:54:48.343Z,97928.34
2023-01-31T20:57:52.732Z,97938.53
2023-01-31T21:00:57.394Z,97918.78
2023-01-31T21:04:01.312Z,97921.09
2023-01-31T21:07:05.006Z,97912.38
2023-01-31T21:10:08.924Z,97918.59
2023-01-31T21:13:11.874Z,97919.53
2023-01-31T21:16:18.728Z,97927.28
2023-01-31T21:19:21.682Z,97911.44
2023-01-31T21:22:28.112Z,97906.63
2023-01-31T21:25:31.979Z,97917.16
2023-01-31T21:28:35.570Z,97919.03
2023-01-31T21:31:38.542Z,97904.47
2023-01-31T21:34:41.685Z,97915.22
2023-01-31T21:37:44.625Z,97930.00
2023-01-31T21:40:49.751Z,97931.22
2023-01-31T21:43:52.800Z,97933.41
2023-01-31T21:46:57.754Z,97922.16
2023-01-31T21:50:00.501Z,97916.34
2023-01-31T21:53:05.407Z,97909.00
2023-01-31T21:56:15.031Z,97903.84
2023-01-31T21:59:17.711Z,97911.59
2023-01-31T22:02:22.585Z,97914.00
2023-01-31T22:05:25.431Z,97918.19
2023-01-31T22:08:30.811Z,97898.66
2023-01-31T22:11:37.657Z,97902.03
2023-01-31T22:14:40.663Z,97906.28
2023-01-31T22:17:44.492Z,97896.66
2023-01-31T22:20:47.604Z,97880.72
2023-01-31T22:23:53.824Z,97881.75
2023-01-31T22:26:56.490Z,97869.53
2023-01-31T22:30:13.934Z,97859.91
2023-01-31T22:33:19.479Z,97878.66
2023-01-31T22:36:24.306Z,97860.66
2023-01-31T22:39:28.313Z,97874.22
2023-01-31T22:42:31.136Z,97855.50
2023-01-31T22:45:35.429Z,97876.00
2023-01-31T22:48:38.332Z,97863.78
2023-01-31T22:51:41.486Z,97858.31
2023-01-31T22:54:45.024Z,97855.41
2023-01-31T22:57:49.327Z,97865.75
2023-01-31T23:00:53.678Z,97877.69
2023-01-31T23:03:59.224Z,97876.47
2023-01-31T23:07:01.991Z,97864.84
2023-01-31T23:10:05.118Z,97872.72
2023-01-31T23:13:10.881Z,97867.34
2023-01-31T23:16:22.124Z,97853.03
2023-01-31T23:19:25.246Z,97840.91
2023-01-31T23:22:28.061Z,97837.91
2023-01-31T23:25:31.940Z,97844.84
2023-01-31T23:28:34.746Z,97849.72
2023-01-31T23:31:37.894Z,97848.88
2023-01-31T23:34:40.699Z,97841.63
2023-01-31T23:37:43.469Z,97856.44
2023-01-31T23:40:53.380Z,97850.31
2023-01-31T23:43:56.425Z,97863.50
2023-01-31T23:46:58.974Z,97870.84
2023-01-31T23:50:01.989Z,97858.50
2023-01-31T23:53:04.745Z,97867.56
2023-01-31T23:56:07.663Z,97866.50
2023-01-31T23:59:10.609Z,97863.81
